createdAt,value
2023-02-06T00:01:28.847Z,2.30
2023-02-06T00:03:55.349Z,2.07
2023-02-06T00:06:22.146Z,2.17
2023-02-06T00:08:48.648Z,2.67
2023-02-06T00:11:16.819Z,2.20
2023-02-06T00:13:44.621Z,2.40
2023-02-06T00:16:22.896Z,2.23
2023-02-06T00:18:49.822Z,2.77
2023-02-06T00:21:20.170Z,2.50
2023-02-06T00:23:46.644Z,2.27
2023-02-06T00:26:13.107Z,2.17
2023-02-06T00:28:39.841Z,3.03
2023-02-06T00:31:08.122Z,2.53
2023-02-06T00:33:37.935Z,3.13
2023-02-06T00:36:05.609Z,3.23
2023-02-06T00:38:32.680Z,2.70
2023-02-06T00:40:59.218Z,2.67
2023-02-06T00:43:28.313Z,3.40
2023-02-06T00:45:56.720Z,2.63
2023-02-06T00:48:24.409Z,2.37
2023-02-06T00:50:52.653Z,2.73
2023-02-06T00:53:19.470Z,2.93
2023-02-06T00:55:45.987Z,3.87
2023-02-06T00:58:12.484Z,4.37
2023-02-06T01:00:39.020Z,2.63
2023-02-06T01:03:05.600Z,3.00
2023-02-06T01:05:32.392Z,2.00
2023-02-06T01:07:58.869Z,3.37
2023-02-06T01:10:25.349Z,3.13
2023-02-06T01:12:51.843Z,2.50
2023-02-06T01:15:18.414Z,3.50
2023-02-06T01:17:44.929Z,3.70
2023-02-06T01:20:12.974Z,3.00
2023-02-06T01:22:39.608Z,2.50
2023-02-06T01:25:08.908Z,2.70
2023-02-06T01:27:38.239Z,2.27
2023-02-06T01:30:08.925Z,2.47
2023-02-06T01:32:41.906Z,2.43
2023-02-06T01:35:10.144Z,2.90
2023-02-06T01:37:39.596Z,2.27
2023-02-06T01:40:08.583Z,3.00
2023-02-06T01:42:36.618Z,2.83
2023-02-06T01:45:40.824Z,2.00
2023-02-06T01:48:12.165Z,2.57
2023-02-06T01:50:41.510Z,3.00
2023-02-06T01:53:12.007Z,2.07
2023-02-06T01:55:41.794Z,2.83
2023-02-06T01:58:15.309Z,2.73
2023-02-06T02:00:42.175Z,3.67
2023-02-06T02:03:08.984Z,3.17
2023-02-06T02:05:36.098Z,3.17
2023-02-06T02:08:11.347Z,2.93
2023-02-06T02:10:37.869Z,2.87
2023-02-06T02:13:04.319Z,2.73
2023-02-06T02:15:48.920Z,2.70
2023-02-06T02:18:29.660Z,2.33
2023-02-06T02:21:20.348Z,2.30
2023-02-06T02:24:02.664Z,4.50
2023-02-06T02:27:02.296Z,2.50
2023-02-06T02:29:49.053Z,1.93
2023-02-06T02:32:31.434Z,2.50
2023-02-06T02:35:33.021Z,3.10
2023-02-06T02:38:05.662Z,2.03
2023-02-06T02:40:38.058Z,2.10
2023-02-06T02:43:29.952Z,1.80
2023-02-06T02:46:15.837Z,2.30
2023-02-06T02:48:47.238Z,3.03
2023-02-06T02:51:16.326Z,1.87
2023-02-06T02:53:45.973Z,3.33
2023-02-06T02:56:18.559Z,2.87
2023-02-06T02:58:48.819Z,2.33
2023-02-06T03:01:21.338Z,2.50
2023-02-06T03:03:49.174Z,2.03
2023-02-06T03:06:28.750Z,2.03
2023-02-06T03:09:03.109Z,2.90
2023-02-06T03:11:30.102Z,2.63
2023-02-06T03:14:18.195Z,2.07
2023-02-06T03:16:50.669Z,1.67
2023-02-06T03:19:21.619Z,2.43
2023-02-06T03:21:49.945Z,2.37
2023-02-06T03:24:29.812Z,2.43
2023-02-06T03:27:01.969Z,2.33
2023-02-06T03:29:31.537Z,1.97
2023-02-06T03:32:07.348Z,3.17
2023-02-06T03:35:01.854Z,2.87
2023-02-06T03:37:29.395Z,2.70
2023-02-06T03:39:59.223Z,2.57
2023-02-06T03:42:27.500Z,2.40
2023-02-06T03:45:00.576Z,2.50
2023-02-06T03:47:29.616Z,2.30
2023-02-06T03:49:59.982Z,2.60
2023-02-06T03:52:32.809Z,2.43
2023-02-06T03:55:04.261Z,2.30
2023-02-06T03:57:32.801Z,3.10
2023-02-06T03:59:59.360Z,3.37
2023-02-06T04:02:26.082Z,2.20
2023-02-06T04:04:52.701Z,2.43
2023-02-06T04:07:27.346Z,1.87
2023-02-06T04:09:54.002Z,2.10
2023-02-06T04:12:21.441Z,3.30
2023-02-06T04:14:51.228Z,2.70
2023-02-06T04:17:38.532Z,2.47
2023-02-06T04:20:08.216Z,2.93
2023-02-06T04:22:35.027Z,2.07
2023-02-06T04:25:01.839Z,1.93
2023-02-06T04:27:28.400Z,2.57
2023-02-06T04:29:54.856Z,2.20
2023-02-06T04:32:21.323Z,2.60
2023-02-06T04:34:51.828Z,2.07
2023-02-06T04:37:19.805Z,2.33
2023-02-06T04:39:49.975Z,2.37
2023-02-06T04:42:16.430Z,2.07
2023-02-06T04:44:42.881Z,2.50
2023-02-06T04:47:09.379Z,2.23
2023-02-06T04:49:35.883Z,2.90
2023-02-06T04:52:02.339Z,2.20
2023-02-06T04:54:29.775Z,2.03
2023-02-06T04:56:57.763Z,2.70
2023-02-06T04:59:24.258Z,2.80
2023-02-06T05:01:53.781Z,2.97
2023-02-06T05:04:23.962Z,2.10
2023-02-06T05:06:53.297Z,2.53
2023-02-06T05:09:22.689Z,2.87
2023-02-06T05:11:51.182Z,1.90
2023-02-06T05:14:17.646Z,2.30
2023-02-06T05:16:45.403Z,1.97
2023-02-06T05:19:11.850Z,2.13
2023-02-06T05:21:38.349Z,2.40
2023-02-06T05:24:05.195Z,2.40
2023-02-06T05:26:31.657Z,1.70
2023-02-06T05:28:58.124Z,1.73
2023-02-06T05:31:24.744Z,3.23
2023-02-06T05:33:55.198Z,1.67
2023-02-06T05:36:25.031Z,2.00
2023-02-06T05:38:54.275Z,2.17
2023-02-06T05:41:23.097Z,2.97
2023-02-06T05:43:49.573Z,1.93
2023-02-06T05:46:16.112Z,2.80
2023-02-06T05:48:42.582Z,2.53
2023-02-06T05:51:09.041Z,2.57
2023-02-06T05:53:35.543Z,1.63
2023-02-06T05:56:02.165Z,2.53
2023-02-06T05:58:28.714Z,1.60
2023-02-06T06:00:55.255Z,2.30
2023-02-06T06:03:24.958Z,2.10
2023-02-06T06:05:55.057Z,3.37
2023-02-06T06:08:23.569Z,2.47
2023-02-06T06:10:54.387Z,1.87
2023-02-06T06:13:21.737Z,3.60
2023-02-06T06:15:53.631Z,2.03
2023-02-06T06:18:23.952Z,2.80
2023-02-06T06:20:50.727Z,2.30
2023-02-06T06:23:17.850Z,2.33
2023-02-06T06:25:46.783Z,2.20
2023-02-06T06:28:13.413Z,2.30
2023-02-06T06:30:39.958Z,2.67
2023-02-06T06:33:06.484Z,2.23
2023-02-06T06:35:33.425Z,1.93
2023-02-06T06:38:00.075Z,3.03
2023-02-06T06:40:26.603Z,2.10
2023-02-06T06:42:56.283Z,1.90
2023-02-06T06:45:26.070Z,2.73
2023-02-06T06:47:55.448Z,2.37
2023-02-06T06:50:26.519Z,2.10
2023-02-06T06:52:55.805Z,2.87
2023-02-06T06:55:23.937Z,2.37
2023-02-06T06:57:54.798Z,2.10
2023-02-06T07:00:24.354Z,2.20
2023-02-06T07:02:55.792Z,2.20
2023-02-06T07:05:25.446Z,3.37
2023-02-06T07:07:53.712Z,2.13
2023-02-06T07:10:20.272Z,2.50
2023-02-06T07:12:46.703Z,2.67
2023-02-06T07:15:13.192Z,1.63
2023-02-06T07:17:39.929Z,2.57
2023-02-06T07:20:07.049Z,2.60
2023-02-06T07:22:33.564Z,2.67
2023-02-06T07:25:00.038Z,2.40
2023-02-06T07:27:26.570Z,2.40
2023-02-06T07:29:56.200Z,2.40
2023-02-06T07:32:28.116Z,2.53
2023-02-06T07:34:54.604Z,2.23
2023-02-06T07:37:23.498Z,2.40
2023-02-06T07:39:50.062Z,2.53
2023-02-06T07:42:16.701Z,3.30
2023-02-06T07:44:43.201Z,2.67
2023-02-06T07:47:10.428Z,2.37
2023-02-06T07:49:36.941Z,2.03
2023-02-06T07:52:03.913Z,2.80
2023-02-06T07:54:31.266Z,2.50
2023-02-06T07:56:57.731Z,1.67
2023-02-06T07:59:24.876Z,2.33
2023-02-06T08:01:55.705Z,3.23
2023-02-06T08:04:25.503Z,2.13
2023-02-06T08:06:54.719Z,3.13
2023-02-06T08:09:23.560Z,2.40
2023-02-06T08:11:53.089Z,2.83
2023-02-06T08:14:19.550Z,2.60
2023-02-06T08:16:46.378Z,2.03
2023-02-06T08:19:12.871Z,2.43
2023-02-06T08:21:39.421Z,2.30
2023-02-06T08:24:06.189Z,3.17
2023-02-06T08:26:33.213Z,3.23
2023-02-06T08:29:02.977Z,2.43
2023-02-06T08:31:35.533Z,2.00
2023-02-06T08:34:02.805Z,2.37
2023-02-06T08:36:31.931Z,3.50
2023-02-06T08:38:59.819Z,1.93
2023-02-06T08:41:41.055Z,2.60
2023-02-06T08:44:11.852Z,2.17
2023-02-06T08:46:39.358Z,2.93
2023-02-06T08:49:08.327Z,2.33
2023-02-06T08:51:36.805Z,2.03
2023-02-06T08:54:06.396Z,2.80
2023-02-06T08:56:34.638Z,2.80
2023-02-06T08:59:01.389Z,2.97
2023-02-06T09:01:30.693Z,2.40
2023-02-06T09:03:59.380Z,2.00
2023-02-06T09:06:26.547Z,2.80
2023-02-06T09:08:57.278Z,2.40
2023-02-06T09:11:26.017Z,3.00
2023-02-06T09:13:57.739Z,2.50
2023-02-06T09:16:26.087Z,2.80
2023-02-06T09:19:01.221Z,3.10
2023-02-06T09:21:30.353Z,2.60
2023-02-06T09:23:59.633Z,2.83
2023-02-06T09:26:44.875Z,2.57
2023-02-06T09:29:17.298Z,2.57
2023-02-06T09:31:43.977Z,3.20
2023-02-06T09:34:12.418Z,2.97
2023-02-06T09:36:39.458Z,3.00
2023-02-06T09:39:07.679Z,2.90
2023-02-06T09:41:36.747Z,3.87
2023-02-06T09:44:18.488Z,4.03
2023-02-06T09:46:50.163Z,2.93
2023-02-06T09:49:39.634Z,4.13
2023-02-06T09:52:35.089Z,2.67
2023-02-06T09:55:23.371Z,3.63
2023-02-06T09:58:06.574Z,3.30
2023-02-06T10:00:53.656Z,3.70
2023-02-06T10:03:48.483Z,4.60
2023-02-06T10:06:21.764Z,2.60
2023-02-06T10:09:16.293Z,2.87
2023-02-06T10:12:07.310Z,3.03
2023-02-06T10:14:46.848Z,3.07
2023-02-06T10:17:29.192Z,2.57
2023-02-06T10:20:12.399Z,2.73
2023-02-06T10:23:49.959Z,2.97
2023-02-06T10:26:18.440Z,2.93
2023-02-06T10:28:56.818Z,3.10
2023-02-06T10:31:29.474Z,3.27
2023-02-06T10:34:14.617Z,2.80
2023-02-06T10:36:53.766Z,3.13
2023-02-06T10:39:38.331Z,3.10
2023-02-06T10:42:26.319Z,2.77
2023-02-06T10:45:27.620Z,3.03
2023-02-06T10:47:55.673Z,2.70
2023-02-06T10:50:58.754Z,2.90
2023-02-06T10:53:34.716Z,4.00
2023-02-06T10:56:14.882Z,3.20
2023-02-06T10:59:20.488Z,2.60
2023-02-06T11:01:48.298Z,3.30
2023-02-06T11:04:25.757Z,2.53
2023-02-06T11:07:01.098Z,2.23
2023-02-06T11:09:28.208Z,2.47
2023-02-06T11:12:00.395Z,2.43
2023-02-06T11:14:38.539Z,2.20
2023-02-06T11:17:05.043Z,2.50
2023-02-06T11:19:39.001Z,2.40
2023-02-06T11:22:07.244Z,2.47
2023-02-06T11:24:35.092Z,2.57
2023-02-06T11:27:11.665Z,2.40
2023-02-06T11:29:44.980Z,2.53
2023-02-06T11:33:02.681Z,2.80
2023-02-06T11:35:36.625Z,3.13
2023-02-06T11:38:27.767Z,2.67
2023-02-06T11:40:55.694Z,2.60
2023-02-06T11:43:25.525Z,2.60
2023-02-06T11:46:14.283Z,2.50
2023-02-06T11:48:45.830Z,8.30
2023-02-06T11:51:14.121Z,5.70
2023-02-06T11:54:01.252Z,4.07
2023-02-06T11:56:29.907Z,2.60
2023-02-06T11:59:15.547Z,2.60
2023-02-06T12:01:47.288Z,2.70
2023-02-06T12:04:23.936Z,2.50
2023-02-06T12:06:56.512Z,3.00
2023-02-06T12:09:26.776Z,2.87
2023-02-06T12:12:11.806Z,2.60
2023-02-06T12:14:55.921Z,2.90
2023-02-06T12:17:32.772Z,2.80
2023-02-06T12:20:08.070Z,2.67
2023-02-06T12:22:40.400Z,2.77
2023-02-06T12:25:23.065Z,2.30
2023-02-06T12:27:54.292Z,2.77
2023-02-06T12:30:34.585Z,3.17
2023-02-06T12:33:33.301Z,2.73
2023-02-06T12:36:07.971Z,2.57
2023-02-06T12:38:43.916Z,2.93
2023-02-06T12:41:10.356Z,3.00
2023-02-06T12:43:38.509Z,2.53
2023-02-06T12:46:17.301Z,3.03
2023-02-06T12:49:07.684Z,3.33
2023-02-06T12:51:45.660Z,2.83
2023-02-06T12:54:26.418Z,2.80
2023-02-06T12:57:03.180Z,2.70
2023-02-06T13:00:06.759Z,2.40
2023-02-06T13:02:57.769Z,2.72
2023-02-06T13:05:38.415Z,2.97
2023-02-06T13:08:11.034Z,2.23
2023-02-06T13:10:39.004Z,3.40
2023-02-06T13:13:06.111Z,2.45
2023-02-06T13:15:41.106Z,2.72
2023-02-06T13:18:37.496Z,2.70
2023-02-06T13:21:28.768Z,2.60
2023-02-06T13:24:17.115Z,2.50
2023-02-06T13:26:47.862Z,2.90
2023-02-06T13:29:25.618Z,3.07
2023-02-06T13:32:10.708Z,3.40
2023-02-06T13:34:43.389Z,4.23
2023-02-06T13:37:34.948Z,4.07
2023-02-06T13:40:23.117Z,3.53
2023-02-06T13:43:07.727Z,2.85
2023-02-06T13:45:49.511Z,5.72
2023-02-06T13:48:28.265Z,3.77
2023-02-06T13:51:21.303Z,2.77
2023-02-06T13:54:15.863Z,2.93
2023-02-06T13:57:31.300Z,2.90
2023-02-06T14:00:23.038Z,2.60
2023-02-06T14:03:04.806Z,2.10
2023-02-06T14:05:44.064Z,2.92
2023-02-06T14:08:25.698Z,2.85
2023-02-06T14:11:39.558Z,2.70
2023-02-06T14:14:28.417Z,2.20
2023-02-06T14:17:10.742Z,2.35
2023-02-06T14:19:48.280Z,2.78
2023-02-06T14:22:49.226Z,2.53
2023-02-06T14:25:34.056Z,2.58
2023-02-06T14:28:19.117Z,2.28
2023-02-06T14:31:07.611Z,2.38
2023-02-06T14:33:59.714Z,1.95
2023-02-06T14:36:51.229Z,2.45
2023-02-06T14:39:52.794Z,2.40
2023-02-06T14:42:25.440Z,2.75
2023-02-06T14:45:03.136Z,2.28
2023-02-06T14:47:33.443Z,2.90
2023-02-06T14:50:00.946Z,2.65
2023-02-06T14:52:33.155Z,2.60
2023-02-06T14:54:59.765Z,2.90
2023-02-06T14:57:31.428Z,2.55
2023-02-06T15:00:01.730Z,2.60
2023-02-06T15:02:34.415Z,2.13
2023-02-06T15:05:02.370Z,2.78
2023-02-06T15:07:33.285Z,2.28
2023-02-06T15:10:07.602Z,2.97
2023-02-06T15:12:34.997Z,2.55
2023-02-06T15:15:23.554Z,2.40
2023-02-06T15:18:02.136Z,2.20
2023-02-06T15:20:40.232Z,2.67
2023-02-06T15:23:18.137Z,2.30
2023-02-06T15:25:58.950Z,2.50
2023-02-06T15:28:33.616Z,2.33
2023-02-06T15:31:01.992Z,2.22
2023-02-06T15:33:34.169Z,2.22
2023-02-06T15:36:03.304Z,2.45
2023-02-06T15:38:32.972Z,2.92
2023-02-06T15:41:06.511Z,2.25
2023-02-06T15:43:34.432Z,3.10
2023-02-06T15:46:03.198Z,2.75
2023-02-06T15:48:50.837Z,2.75
2023-02-06T15:51:30.043Z,3.17
2023-02-06T15:54:22.620Z,2.72
2023-02-06T15:57:17.182Z,2.83
2023-02-06T15:59:44.026Z,3.13
2023-02-06T16:02:24.911Z,3.03
2023-02-06T16:04:54.009Z,2.78
2023-02-06T16:07:31.748Z,2.70
2023-02-06T16:10:24.783Z,2.30
2023-02-06T16:12:52.778Z,2.33
2023-02-06T16:15:25.195Z,9.25
2023-02-06T16:17:52.395Z,14.05
2023-02-06T16:20:40.074Z,9.55
2023-02-06T16:23:47.653Z,5.72
2023-02-06T16:26:34.041Z,3.13
2023-02-06T16:29:12.803Z,2.88
2023-02-06T16:32:08.568Z,2.90
2023-02-06T16:34:45.807Z,4.07
2023-02-06T16:37:23.215Z,3.38
2023-02-06T16:39:49.822Z,3.33
2023-02-06T16:42:18.226Z,3.27
2023-02-06T16:44:50.260Z,3.27
2023-02-06T16:47:20.450Z,5.00
2023-02-06T16:49:51.071Z,4.83
2023-02-06T16:52:31.278Z,5.43
2023-02-06T16:55:00.105Z,5.13
2023-02-06T16:57:38.170Z,4.47
2023-02-06T17:00:25.550Z,8.23
2023-02-06T17:02:53.200Z,9.03
2023-02-06T17:05:23.702Z,12.37
2023-02-06T17:07:50.853Z,10.00
2023-02-06T17:10:19.760Z,16.57
2023-02-06T17:12:47.115Z,12.63
2023-02-06T17:15:18.280Z,13.67
2023-02-06T17:17:45.440Z,11.23
2023-02-06T17:20:41.073Z,6.37
2023-02-06T17:23:10.540Z,4.70
2023-02-06T17:26:15.512Z,4.03
2023-02-06T17:28:53.130Z,4.37
2023-02-06T17:31:20.126Z,5.20
2023-02-06T17:33:46.867Z,2.80
2023-02-06T17:36:18.635Z,3.70
2023-02-06T17:38:45.525Z,3.90
2023-02-06T17:41:12.318Z,2.87
2023-02-06T17:43:38.870Z,2.70
2023-02-06T17:46:06.592Z,4.17
2023-02-06T17:48:36.688Z,4.60
2023-02-06T17:51:05.735Z,3.83
2023-02-06T17:53:32.514Z,3.50
2023-02-06T17:56:07.148Z,3.47
2023-02-06T17:58:35.094Z,3.33
2023-02-06T18:01:01.804Z,2.90
2023-02-06T18:03:31.961Z,3.30
2023-02-06T18:06:02.788Z,3.67
2023-02-06T18:08:40.960Z,3.23
2023-02-06T18:11:32.279Z,3.17
2023-02-06T18:14:02.603Z,4.07
2023-02-06T18:16:32.305Z,4.93
2023-02-06T18:19:02.058Z,4.53
2023-02-06T18:21:31.548Z,4.17
2023-02-06T18:24:07.161Z,4.47
2023-02-06T18:26:33.872Z,3.87
2023-02-06T18:29:06.455Z,3.53
2023-02-06T18:31:38.842Z,3.50
2023-02-06T18:34:08.917Z,3.20
2023-02-06T18:36:36.918Z,3.40
2023-02-06T18:39:37.421Z,2.93
2023-02-06T18:42:23.534Z,3.90
2023-02-06T18:45:02.096Z,5.97
2023-02-06T18:47:30.705Z,3.67
2023-02-06T18:50:32.306Z,3.90
2023-02-06T18:54:53.398Z,4.30
2023-02-06T18:59:33.906Z,3.13
2023-02-06T19:00:47.777Z,3.20
2023-02-06T19:03:14.684Z,2.47
2023-02-06T19:06:48.436Z,3.50
2023-02-06T19:09:15.826Z,3.27
2023-02-06T19:11:43.004Z,2.90
2023-02-06T19:14:15.188Z,3.00
2023-02-06T19:16:44.458Z,2.90
2023-02-06T19:19:12.149Z,3.07
2023-02-06T19:21:39.200Z,3.57
2023-02-06T19:24:06.161Z,3.67
2023-02-06T19:26:34.033Z,4.17
2023-02-06T19:29:00.981Z,3.67
2023-02-06T19:31:31.677Z,3.33
2023-02-06T19:34:01.759Z,3.47
2023-02-06T19:36:35.836Z,3.33
2023-02-06T19:39:07.310Z,3.13
2023-02-06T19:41:34.357Z,2.77
2023-02-06T19:44:12.163Z,3.10
2023-02-06T19:46:45.025Z,3.57
2023-02-06T19:50:28.312Z,3.37
2023-02-06T19:52:35.233Z,3.37
2023-02-06T19:55:04.856Z,3.93
2023-02-06T19:57:47.070Z,2.90
2023-02-06T20:00:14.104Z,4.07
2023-02-06T20:02:40.610Z,5.07
2023-02-06T20:05:07.684Z,6.13
2023-02-06T20:07:45.157Z,5.00
2023-02-06T20:10:13.926Z,10.23
2023-02-06T20:12:42.750Z,7.73
2023-02-06T20:15:13.475Z,4.07
2023-02-06T20:18:06.894Z,3.10
2023-02-06T20:20:53.910Z,3.17
2023-02-06T20:26:35.386Z,3.20
2023-02-06T20:29:10.845Z,2.83
2023-02-06T20:31:37.365Z,3.00
2023-02-06T20:34:04.001Z,2.70
2023-02-06T20:36:31.145Z,2.23
2023-02-06T20:39:02.803Z,2.47
2023-02-06T20:41:32.283Z,2.63
2023-02-06T20:44:00.780Z,2.67
2023-02-06T20:46:30.851Z,2.47
2023-02-06T20:49:02.463Z,2.57
2023-02-06T20:51:32.321Z,2.83
2023-02-06T20:54:01.732Z,2.37
2023-02-06T20:56:30.618Z,3.07
2023-02-06T20:59:03.032Z,2.60
2023-02-06T21:01:31.523Z,2.00
2023-02-06T21:04:04.346Z,2.20
2023-02-06T21:06:35.974Z,2.57
2023-02-06T21:09:04.414Z,2.20
2023-02-06T21:11:36.262Z,2.77
2023-02-06T21:14:04.683Z,2.50
2023-02-06T21:16:32.444Z,2.40
2023-02-06T21:19:04.631Z,2.20
2023-02-06T21:21:34.533Z,2.40
2023-02-06T21:24:01.634Z,2.27
2023-02-06T21:26:29.246Z,2.50
2023-02-06T21:28:58.695Z,2.47
2023-02-06T21:31:37.883Z,2.37
2023-02-06T21:34:12.005Z,2.13
2023-02-06T21:36:39.607Z,2.30
2023-02-06T21:39:07.199Z,2.17
2023-02-06T21:41:34.575Z,2.20
2023-02-06T21:44:02.239Z,1.87
2023-02-06T21:46:34.621Z,2.40
2023-02-06T21:49:06.308Z,1.90
2023-02-06T21:51:41.470Z,2.40
2023-02-06T21:54:08.555Z,2.43
2023-02-06T21:56:38.038Z,2.40
2023-02-06T21:59:06.571Z,2.77
2023-02-06T22:01:34.081Z,2.70
2023-02-06T22:04:26.788Z,2.13
2023-02-06T22:06:53.338Z,2.40
2023-02-06T22:09:20.782Z,1.90
2023-02-06T22:11:47.374Z,2.40
2023-02-06T22:14:17.053Z,2.17
2023-02-06T22:16:46.528Z,2.37
2023-02-06T22:19:13.566Z,2.30
2023-02-06T22:21:41.518Z,2.80
2023-02-06T22:24:10.424Z,2.10
2023-02-06T22:26:38.816Z,2.50
2023-02-06T22:29:07.407Z,2.53
2023-02-06T22:31:36.409Z,2.63
2023-02-06T22:34:33.703Z,2.43
2023-02-06T22:37:02.323Z,2.60
2023-02-06T22:39:28.854Z,2.57
2023-02-06T22:41:55.370Z,2.83
2023-02-06T22:44:43.919Z,3.33
2023-02-06T22:47:10.518Z,2.50
2023-02-06T22:49:37.023Z,2.67
2023-02-06T22:52:26.675Z,2.93
2023-02-06T22:54:53.564Z,2.50
2023-02-06T22:57:20.344Z,2.70
2023-02-06T22:59:47.153Z,2.20
2023-02-06T23:02:13.982Z,2.60
2023-02-06T23:04:40.778Z,2.93
2023-02-06T23:07:07.494Z,2.27
2023-02-06T23:09:38.350Z,2.43
2023-02-06T23:12:05.544Z,2.10
2023-02-06T23:14:34.634Z,2.57
2023-02-06T23:17:04.516Z,2.63
2023-02-06T23:19:31.163Z,2.47
2023-02-06T23:21:57.898Z,2.60
2023-02-06T23:24:24.442Z,2.43
2023-02-06T23:26:51.874Z,2.20
2023-02-06T23:29:19.658Z,2.93
2023-02-06T23:31:47.428Z,2.50
2023-02-06T23:34:15.206Z,2.47
2023-02-06T23:36:42.747Z,2.80
2023-02-06T23:39:09.328Z,2.40
2023-02-06T23:41:39.189Z,2.00
2023-02-06T23:44:07.617Z,2.30
2023-02-06T23:46:39.860Z,2.57
2023-02-06T23:49:10.278Z,2.80
2023-02-06T23:51:38.068Z,2.60
2023-02-06T23:54:06.905Z,2.93
2023-02-06T23:56:33.598Z,2.30
2023-02-06T23:59:01.705Z,2.93
